San Angelo, Texas
Current Conditions -  °F | °C
As of 12:51 AM on Thursday 18 Dec 2014 (Local Time) from KSJT Reporting Station
Overcast Overcast  
Wind Chill: 50°   Ceiling: 300
Heat Index: 50°   Visibility: 10mi
Dew Point: 49°   Wind: 6mph
Humidity: 96%   Direction: 220°SW
Pressure: 30.09"   Gusts: NA
Location:  31.46°N, 100.44°W
Report Text: KSJT 180651Z AUTO 22005KT 10SM OVC003 10/09 A3009 RMK AO2 SLP185 T01000094
Loading
Personal Weather Stations






























Interactive Weather Map New forecast layout! Learn more

10-Day Weather Forecast

Advertisements
Track Severe Weather on mobile